East Rochester, New Hampshire
Current Conditions -  °F | °C
As of 5:18 AM on Thursday 23 Oct 2014 (Local Time) from KDAW Reporting Station
Light Rain Light Rain  
Wind Chill: 42°   Ceiling: 1000
Heat Index: 48°   Visibility: 8mi
Dew Point: 45°   Wind: 17mph
Humidity: 89%   Direction: 30°NNE
Pressure: 29.78"   Gusts: 26mph
Location:  43.3246°N, 70.9445°W
Report Text: KDAW 230918Z AUTO 03015G23KT 8SM -RA BKN010 OVC018 09/07 A2978 RMK AO2 P0004 T00890072
Loading
Personal Weather Stations






























Interactive Weather Map
Tropical Storm Tracking
New forecast layout! Learn more

10-Day Weather Forecast

Advertisements
Track Severe Weather on mobile